createdAt,value
2022-09-20T00:01:08.203Z,57.08
2022-09-20T00:03:40.723Z,55.69
2022-09-20T00:06:12.171Z,55.77
2022-09-20T00:08:40.292Z,54.23
2022-09-20T00:11:10.657Z,57.24
2022-09-20T00:13:39.309Z,57.10
2022-09-20T00:16:09.418Z,56.24
2022-09-20T00:18:36.853Z,56.12
2022-09-20T00:21:04.716Z,56.73
2022-09-20T00:23:32.726Z,58.86
2022-09-20T00:26:01.680Z,58.88
2022-09-20T00:28:29.644Z,59.23
2022-09-20T00:30:57.438Z,59.80
2022-09-20T00:33:45.372Z,59.81
2022-09-20T00:36:12.797Z,60.20
2022-09-20T00:38:40.423Z,60.40
2022-09-20T00:41:08.319Z,60.62
2022-09-20T00:43:41.812Z,61.62
2022-09-20T00:46:27.811Z,63.63
2022-09-20T00:49:25.734Z,62.00
2022-09-20T00:51:59.233Z,63.06
2022-09-20T00:54:26.977Z,61.32
2022-09-20T00:56:54.258Z,62.33
2022-09-20T00:59:23.280Z,61.75
2022-09-20T01:01:54.006Z,60.82
2022-09-20T01:04:23.160Z,61.31
2022-09-20T01:06:51.881Z,61.16
2022-09-20T01:09:19.061Z,61.22
2022-09-20T01:11:47.084Z,60.16
2022-09-20T01:14:17.275Z,60.62
2022-09-20T01:16:44.410Z,60.72
2022-09-20T01:19:53.896Z,60.90
2022-09-20T01:22:41.282Z,61.33
2022-09-20T01:25:16.903Z,62.49
2022-09-20T01:27:48.787Z,62.67
2022-09-20T01:30:25.254Z,62.07
2022-09-20T01:33:07.833Z,62.13
2022-09-20T01:35:35.856Z,61.68
2022-09-20T01:38:25.019Z,62.58
2022-09-20T01:41:06.956Z,60.01
2022-09-20T01:43:54.107Z,58.88
2022-09-20T01:46:32.748Z,59.02
2022-09-20T01:49:15.132Z,57.77
2022-09-20T01:52:13.326Z,59.40
2022-09-20T01:54:58.108Z,60.41
2022-09-20T01:57:55.913Z,58.29
2022-09-20T02:00:27.573Z,59.82
2022-09-20T02:03:12.431Z,57.30
2022-09-20T02:06:33.887Z,58.35
2022-09-20T02:09:16.197Z,56.84
2022-09-20T02:12:01.799Z,57.76
2022-09-20T02:14:35.915Z,58.18
2022-09-20T02:17:12.569Z,59.36
2022-09-20T02:19:48.563Z,58.37
2022-09-20T02:22:34.139Z,61.03
2022-09-20T02:25:22.351Z,61.18
2022-09-20T02:28:14.324Z,61.44
2022-09-20T02:30:51.043Z,63.82
2022-09-20T02:33:40.734Z,64.00
2022-09-20T02:36:25.205Z,63.67
2022-09-20T02:39:11.035Z,64.23
2022-09-20T02:41:59.711Z,64.04
2022-09-20T02:45:04.230Z,64.64
2022-09-20T02:47:38.064Z,65.31
2022-09-20T02:50:20.022Z,65.04
2022-09-20T02:52:59.030Z,65.76
2022-09-20T02:55:33.151Z,66.56
2022-09-20T02:58:13.049Z,66.81
2022-09-20T03:01:04.022Z,63.96
2022-09-20T03:03:51.535Z,62.99
2022-09-20T03:06:35.786Z,63.82
2022-09-20T03:09:22.047Z,62.67
2022-09-20T03:12:03.085Z,64.00
2022-09-20T03:15:02.482Z,64.26
2022-09-20T03:17:43.598Z,64.19
2022-09-20T03:20:52.449Z,65.24
2022-09-20T03:23:46.029Z,65.27
2022-09-20T03:27:02.322Z,64.07
2022-09-20T03:29:47.310Z,65.33
2022-09-20T03:32:51.576Z,64.99
2022-09-20T03:35:37.777Z,61.58
2022-09-20T03:38:14.117Z,60.64
2022-09-20T03:40:53.191Z,60.47
2022-09-20T03:43:30.144Z,62.10
2022-09-20T03:46:04.137Z,62.54
2022-09-20T03:48:34.755Z,63.22
2022-09-20T03:51:33.113Z,61.24
2022-09-20T03:54:29.210Z,60.53
2022-09-20T03:57:15.882Z,60.11
2022-09-20T03:59:49.048Z,60.19
2022-09-20T04:03:07.069Z,60.77
2022-09-20T04:06:00.092Z,62.15
2022-09-20T04:08:51.575Z,61.62
2022-09-20T04:11:32.593Z,60.70
2022-09-20T04:14:16.787Z,60.70
2022-09-20T04:17:09.724Z,59.74
2022-09-20T04:19:57.012Z,59.62
2022-09-20T04:22:26.081Z,59.40
2022-09-20T04:25:09.706Z,61.67
2022-09-20T04:27:41.893Z,60.56
2022-09-20T04:30:22.429Z,59.33
2022-09-20T04:33:00.214Z,59.44
2022-09-20T04:36:02.884Z,58.95
2022-09-20T04:38:30.947Z,58.88
2022-09-20T04:41:22.977Z,58.42
2022-09-20T04:44:08.979Z,58.77
2022-09-20T04:46:55.881Z,58.79
2022-09-20T04:49:49.519Z,59.63
2022-09-20T04:52:31.976Z,59.02
2022-09-20T04:55:16.694Z,59.88
2022-09-20T04:58:05.560Z,58.49
2022-09-20T05:01:11.071Z,60.04
2022-09-20T05:03:53.514Z,62.33
2022-09-20T05:06:23.661Z,62.27
2022-09-20T05:09:00.580Z,61.86
2022-09-20T05:11:43.909Z,63.38
2022-09-20T05:14:24.822Z,63.68
2022-09-20T05:17:00.945Z,65.71
2022-09-20T05:19:52.607Z,64.88
2022-09-20T05:22:47.233Z,63.34
2022-09-20T05:25:20.378Z,61.36
2022-09-20T05:27:56.954Z,60.82
2022-09-20T05:30:30.266Z,59.30
2022-09-20T05:33:21.525Z,61.34
2022-09-20T05:36:17.646Z,62.12
2022-09-20T05:39:20.420Z,61.55
2022-09-20T05:41:57.728Z,59.42
2022-09-20T05:44:47.574Z,60.14
2022-09-20T05:47:39.859Z,62.23
2022-09-20T05:50:29.314Z,62.66
2022-09-20T05:53:02.571Z,63.99
2022-09-20T05:56:03.287Z,62.26
2022-09-20T05:58:52.389Z,60.87
2022-09-20T06:01:30.563Z,60.94
2022-09-20T06:04:13.079Z,60.38
2022-09-20T06:07:11.494Z,59.33
2022-09-20T06:09:51.845Z,58.93
2022-09-20T06:12:36.828Z,58.99
2022-09-20T06:15:26.683Z,59.38
2022-09-20T06:18:08.841Z,59.78
2022-09-20T06:20:57.583Z,60.28
2022-09-20T06:23:25.356Z,59.51
2022-09-20T06:26:23.658Z,59.04
2022-09-20T06:28:57.719Z,57.94
2022-09-20T06:31:33.027Z,58.01
2022-09-20T06:34:05.973Z,57.69
2022-09-20T06:37:03.767Z,57.69
2022-09-20T06:40:10.226Z,57.11
2022-09-20T06:42:39.084Z,57.44
2022-09-20T06:45:06.747Z,57.36
2022-09-20T06:47:38.108Z,57.13
2022-09-20T06:50:07.206Z,58.42
2022-09-20T06:52:35.548Z,59.05
2022-09-20T06:55:07.393Z,61.52
2022-09-20T06:57:38.565Z,60.05
2022-09-20T07:00:10.052Z,62.55
2022-09-20T07:02:37.389Z,62.09
2022-09-20T07:05:07.486Z,63.92
2022-09-20T07:07:34.709Z,64.10
2022-09-20T07:10:01.940Z,64.71
2022-09-20T07:12:29.337Z,61.92
2022-09-20T07:14:56.676Z,62.81
2022-09-20T07:17:23.868Z,64.83
2022-09-20T07:19:51.356Z,66.48
2022-09-20T07:22:18.626Z,67.05
2022-09-20T07:24:47.850Z,67.46
2022-09-20T07:27:15.504Z,66.28
2022-09-20T07:29:42.878Z,64.73
2022-09-20T07:32:10.290Z,65.08
2022-09-20T07:34:37.428Z,65.77
2022-09-20T07:37:04.780Z,64.87
2022-09-20T07:39:31.996Z,62.96
2022-09-20T07:41:59.328Z,65.84
2022-09-20T07:44:27.827Z,66.69
2022-09-20T07:46:58.068Z,65.36
2022-09-20T07:49:26.030Z,66.05
2022-09-20T07:51:53.675Z,65.29
2022-09-20T07:54:21.058Z,65.49
2022-09-20T07:56:48.647Z,63.03
2022-09-20T07:59:16.349Z,65.22
2022-09-20T08:01:43.852Z,63.66
2022-09-20T08:04:11.420Z,65.50
2022-09-20T08:06:40.264Z,65.62
2022-09-20T08:09:11.103Z,65.34
2022-09-20T08:11:40.089Z,66.14
2022-09-20T08:14:09.031Z,66.13
2022-09-20T08:16:42.868Z,65.24
2022-09-20T08:19:20.833Z,64.75
2022-09-20T08:21:49.935Z,63.72
2022-09-20T08:24:17.432Z,61.54
2022-09-20T08:26:44.951Z,60.49
2022-09-20T08:29:13.375Z,60.43
2022-09-20T08:31:42.327Z,59.56
2022-09-20T08:34:12.162Z,61.36
2022-09-20T08:36:41.807Z,60.53
2022-09-20T08:42:13.066Z,58.16
2022-09-20T08:45:00.848Z,57.18
2022-09-20T08:47:31.399Z,58.39
2022-09-20T08:50:00.764Z,58.33
2022-09-20T08:52:36.939Z,59.71
2022-09-20T08:55:23.161Z,58.47
2022-09-20T08:57:53.071Z,57.76
2022-09-20T09:00:22.550Z,59.20
2022-09-20T09:02:58.208Z,59.87
2022-09-20T09:05:38.279Z,58.95
2022-09-20T09:08:16.545Z,58.13
2022-09-20T09:10:52.523Z,56.18
2022-09-20T09:13:32.282Z,58.17
2022-09-20T09:16:02.953Z,57.64
2022-09-20T09:18:36.123Z,56.93
2022-09-20T09:21:04.981Z,57.79
2022-09-20T09:23:42.532Z,57.33
2022-09-20T09:26:17.025Z,57.31
2022-09-20T09:28:44.432Z,56.21
2022-09-20T09:31:29.885Z,55.86
2022-09-20T09:33:57.413Z,55.78
2022-09-20T09:36:25.924Z,55.16
2022-09-20T09:39:22.446Z,56.82
2022-09-20T09:41:51.087Z,56.35
2022-09-20T09:44:27.691Z,54.71
2022-09-20T09:46:56.578Z,56.75
2022-09-20T09:49:35.882Z,55.68
2022-09-20T09:52:26.086Z,55.76
2022-09-20T09:55:02.842Z,54.55
2022-09-20T09:57:55.748Z,55.79
2022-09-20T10:00:24.392Z,55.59
2022-09-20T10:03:04.353Z,55.09
2022-09-20T10:06:00.660Z,55.43
2022-09-20T10:08:46.968Z,53.37
2022-09-20T10:11:30.467Z,53.93
2022-09-20T10:13:57.690Z,53.24
2022-09-20T10:16:34.338Z,54.26
2022-09-20T10:19:27.590Z,55.43
2022-09-20T10:22:06.720Z,54.08
2022-09-20T10:25:00.368Z,54.74
2022-09-20T10:27:52.024Z,55.44
2022-09-20T10:30:23.025Z,53.85
2022-09-20T10:33:01.352Z,52.76
2022-09-20T10:35:35.447Z,52.94
2022-09-20T10:38:23.547Z,53.85
2022-09-20T10:41:26.700Z,53.91
2022-09-20T10:44:19.975Z,54.19
2022-09-20T10:47:11.414Z,53.64
2022-09-20T10:50:03.177Z,54.62
2022-09-20T10:52:34.528Z,52.28
2022-09-20T10:55:31.163Z,52.90
2022-09-20T10:58:16.980Z,52.19
2022-09-20T11:01:09.410Z,51.42
2022-09-20T11:04:09.070Z,51.57
2022-09-20T11:07:00.106Z,50.27
2022-09-20T11:09:31.540Z,51.01
2022-09-20T11:12:23.408Z,50.53
2022-09-20T11:14:57.325Z,51.01
2022-09-20T11:17:33.184Z,50.64
2022-09-20T11:20:07.433Z,51.34
2022-09-20T11:22:41.124Z,50.43
2022-09-20T11:25:21.582Z,48.71
2022-09-20T11:27:58.100Z,50.66
2022-09-20T11:30:25.388Z,49.37
2022-09-20T11:33:17.301Z,49.71
2022-09-20T11:35:58.421Z,49.32
2022-09-20T11:38:54.500Z,50.60
2022-09-20T11:41:29.772Z,49.14
2022-09-20T11:44:04.170Z,50.55
2022-09-20T11:46:36.306Z,48.24
2022-09-20T11:49:20.413Z,47.80
2022-09-20T11:51:59.966Z,48.59
2022-09-20T11:54:37.681Z,48.09
2022-09-20T11:57:08.100Z,47.73
2022-09-20T11:59:40.860Z,48.14
2022-09-20T12:02:20.329Z,47.10
2022-09-20T12:04:49.786Z,47.64
2022-09-20T12:07:26.751Z,48.18
2022-09-20T12:10:00.613Z,50.48
2022-09-20T12:12:47.042Z,47.85
2022-09-20T12:15:26.483Z,48.34
2022-09-20T12:17:53.656Z,48.86
2022-09-20T12:20:50.035Z,50.17
2022-09-20T12:23:42.704Z,50.25
2022-09-20T12:26:11.066Z,50.17
2022-09-20T12:28:49.883Z,50.04
2022-09-20T12:31:20.242Z,50.96
2022-09-20T12:34:13.394Z,49.99
2022-09-20T12:36:52.140Z,49.77
2022-09-20T12:39:30.079Z,48.66
2022-09-20T12:42:22.243Z,50.64
2022-09-20T12:44:49.389Z,48.53
2022-09-20T12:47:22.710Z,49.27
2022-09-20T12:50:14.237Z,48.98
2022-09-20T12:52:50.638Z,50.76
2022-09-20T12:55:33.567Z,52.52
2022-09-20T12:58:04.263Z,51.56
2022-09-20T13:00:55.486Z,50.20
2022-09-20T13:03:37.810Z,48.78
2022-09-20T13:06:12.374Z,49.45
2022-09-20T13:08:41.458Z,48.13
2022-09-20T13:11:24.428Z,49.48
2022-09-20T13:14:05.139Z,49.64
2022-09-20T13:16:52.892Z,50.83
2022-09-20T13:19:34.615Z,49.42
2022-09-20T13:22:12.266Z,48.20
2022-09-20T13:24:42.220Z,50.49
2022-09-20T13:27:18.976Z,50.95
2022-09-20T13:29:47.397Z,49.89
2022-09-20T13:32:28.498Z,48.30
2022-09-20T13:35:18.319Z,49.08
2022-09-20T13:37:54.450Z,48.68
2022-09-20T13:40:24.550Z,49.00
2022-09-20T13:43:13.011Z,49.23
2022-09-20T13:45:42.681Z,48.83
2022-09-20T13:48:10.168Z,48.35
2022-09-20T13:50:45.787Z,47.87
2022-09-20T13:53:39.339Z,47.39
2022-09-20T13:56:10.263Z,46.82
2022-09-20T13:58:38.151Z,46.93
2022-09-20T14:01:06.841Z,46.07
2022-09-20T14:03:34.992Z,46.44
2022-09-20T14:06:06.073Z,47.60
2022-09-20T14:08:38.118Z,49.33
2022-09-20T14:11:08.500Z,48.99
2022-09-20T14:13:39.980Z,48.64
2022-09-20T14:16:07.815Z,48.63
2022-09-20T14:18:36.142Z,49.02
2022-09-20T14:21:04.245Z,49.06
2022-09-20T14:23:31.749Z,48.66
2022-09-20T14:26:17.122Z,48.44
2022-09-20T14:28:44.928Z,48.41
2022-09-20T14:31:33.564Z,47.71
2022-09-20T14:34:03.367Z,46.99
2022-09-20T14:36:31.016Z,47.15
2022-09-20T14:39:02.542Z,48.82
2022-09-20T14:41:34.896Z,49.07
2022-09-20T14:44:02.805Z,48.42
2022-09-20T14:46:33.800Z,47.67
2022-09-20T14:49:32.048Z,48.06
2022-09-20T14:52:28.461Z,49.20
2022-09-20T14:55:02.866Z,48.36
2022-09-20T14:57:30.178Z,48.76
2022-09-20T14:59:57.363Z,48.37
2022-09-20T15:02:25.638Z,47.84
2022-09-20T15:04:55.522Z,46.94
2022-09-20T15:07:23.050Z,47.95
2022-09-20T15:09:50.323Z,48.05
2022-09-20T15:12:19.717Z,47.96
2022-09-20T15:14:47.951Z,47.59
2022-09-20T15:17:18.000Z,47.76
2022-09-20T15:19:46.224Z,47.80
2022-09-20T15:22:14.102Z,47.48
2022-09-20T15:24:41.999Z,48.14
2022-09-20T15:27:10.801Z,49.59
2022-09-20T15:29:38.025Z,49.31
2022-09-20T15:32:05.879Z,48.66
2022-09-20T15:34:33.231Z,49.40
2022-09-20T15:37:00.438Z,50.15
2022-09-20T15:39:27.998Z,49.91
2022-09-20T15:41:55.277Z,49.52
2022-09-20T15:44:22.611Z,50.13
2022-09-20T15:46:51.203Z,49.80
2022-09-20T15:49:18.506Z,50.13
2022-09-20T15:51:46.352Z,49.34
2022-09-20T15:54:14.698Z,49.80
2022-09-20T15:56:42.038Z,50.08
2022-09-20T15:59:10.946Z,50.13
2022-09-20T16:01:39.771Z,50.37
2022-09-20T16:04:07.578Z,50.61
2022-09-20T16:06:35.422Z,50.74
2022-09-20T16:09:03.217Z,50.76
2022-09-20T16:11:30.959Z,50.93
2022-09-20T16:13:59.146Z,51.02
2022-09-20T16:16:28.259Z,51.38
2022-09-20T16:19:14.152Z,51.16
2022-09-20T16:21:43.316Z,50.78
2022-09-20T16:24:12.465Z,50.91
2022-09-20T17:41:18.211Z,52.64
2022-09-20T17:43:46.558Z,52.09
2022-09-20T17:46:16.369Z,51.92
2022-09-20T17:48:50.584Z,52.90
2022-09-20T17:51:19.216Z,53.82
2022-09-20T17:53:47.026Z,54.14
2022-09-20T17:56:15.760Z,54.90
2022-09-20T17:58:43.113Z,55.22
2022-09-20T18:01:15.579Z,54.96
2022-09-20T18:03:45.969Z,53.68
2022-09-20T18:06:24.940Z,54.01
2022-09-20T18:09:01.263Z,53.62
2022-09-20T18:11:31.846Z,53.01
2022-09-20T18:13:59.590Z,52.79
2022-09-20T18:16:27.427Z,53.01
2022-09-20T18:18:54.849Z,53.46
2022-09-20T18:21:26.734Z,53.77
2022-09-20T18:23:55.341Z,53.94
2022-09-20T18:26:24.841Z,54.06
2022-09-20T18:29:04.764Z,54.30
2022-09-20T18:31:36.176Z,54.24
2022-09-20T18:34:08.273Z,54.54
2022-09-20T18:36:38.362Z,54.28
2022-09-20T18:39:06.593Z,54.80
2022-09-20T18:41:36.767Z,54.92
2022-09-20T18:44:07.595Z,54.54
2022-09-20T18:46:38.058Z,55.16
2022-09-20T18:49:07.366Z,54.97
2022-09-20T18:51:40.095Z,55.21
2022-09-20T18:54:10.398Z,55.94
2022-09-20T18:56:41.351Z,55.79
2022-09-20T18:59:17.525Z,55.62
2022-09-20T19:01:52.610Z,55.54
2022-09-20T19:04:52.232Z,55.37
2022-09-20T19:07:44.192Z,55.66
2022-09-20T19:10:23.492Z,55.60
2022-09-20T19:13:22.045Z,56.59
2022-09-20T19:16:20.813Z,56.97
2022-09-20T19:19:22.265Z,57.06
2022-09-20T19:22:08.218Z,57.37
2022-09-20T19:24:58.439Z,56.75
2022-09-20T19:27:26.325Z,56.64
2022-09-20T19:29:54.071Z,56.71
2022-09-20T19:32:26.040Z,56.61
2022-09-20T19:35:01.847Z,57.00
2022-09-20T19:37:44.903Z,56.48
2022-09-20T19:40:24.825Z,56.60
2022-09-20T19:43:26.516Z,56.95
2022-09-20T19:46:16.557Z,57.57
2022-09-20T19:49:09.728Z,57.44
2022-09-20T19:51:44.021Z,58.25
2022-09-20T19:54:14.133Z,59.00
2022-09-20T19:56:45.475Z,59.55
2022-09-20T19:59:13.115Z,59.48
2022-09-20T20:01:41.435Z,59.05
2022-09-20T20:04:09.910Z,58.65
2022-09-20T20:06:48.377Z,58.01
2022-09-20T20:09:40.434Z,58.77
2022-09-20T20:12:16.826Z,59.32
2022-09-20T20:14:49.591Z,60.08
2022-09-20T20:17:45.192Z,60.39
2022-09-20T20:20:12.596Z,60.62
2022-09-20T20:23:06.256Z,60.13
2022-09-20T20:25:43.216Z,59.64
2022-09-20T20:28:10.585Z,59.01
2022-09-20T20:30:38.360Z,58.73
2022-09-20T20:33:07.372Z,60.52
2022-09-20T20:35:36.830Z,59.87
2022-09-20T20:38:14.037Z,59.59
2022-09-20T20:40:45.289Z,58.48
2022-09-20T20:43:12.815Z,58.05
2022-09-20T20:45:40.549Z,57.53
2022-09-20T20:48:13.194Z,57.36
2022-09-20T20:50:48.437Z,56.85
2022-09-20T20:53:23.012Z,56.72
2022-09-20T20:56:00.954Z,56.76
2022-09-20T20:58:35.081Z,56.16
2022-09-20T21:01:17.593Z,57.46
2022-09-20T21:03:57.386Z,58.66
2022-09-20T21:06:31.916Z,58.41
2022-09-20T21:09:12.255Z,58.64
2022-09-20T21:11:45.661Z,59.76
2022-09-20T21:14:13.169Z,58.82
2022-09-20T21:16:43.370Z,58.30
2022-09-20T21:19:21.360Z,57.87
2022-09-20T21:21:51.922Z,57.62
2022-09-20T21:24:29.216Z,57.35
2022-09-20T21:27:06.167Z,58.38
2022-09-20T21:32:21.685Z,59.31
2022-09-20T21:34:49.163Z,59.87
2022-09-20T21:37:16.628Z,60.33
2022-09-20T21:39:45.662Z,61.02
2022-09-20T21:42:13.522Z,61.08
2022-09-20T21:44:45.433Z,60.97
2022-09-20T21:47:19.029Z,60.81
2022-09-20T21:49:47.618Z,61.21
2022-09-20T21:52:15.683Z,61.49
2022-09-20T21:54:46.421Z,61.50
2022-09-20T21:57:13.777Z,61.93
2022-09-20T21:59:41.619Z,62.27
2022-09-20T22:02:09.446Z,62.31
2022-09-20T22:04:36.744Z,62.25
2022-09-20T22:07:04.450Z,62.29
2022-09-20T22:09:32.245Z,62.68
2022-09-20T22:12:00.098Z,62.73
2022-09-20T22:14:27.447Z,61.89
2022-09-20T22:16:54.765Z,63.03
2022-09-20T22:19:22.059Z,63.18
2022-09-20T22:21:51.063Z,63.31
2022-09-20T22:24:18.922Z,63.13
2022-09-20T22:26:48.297Z,63.36
2022-09-20T22:29:16.088Z,63.47
2022-09-20T22:31:45.609Z,63.92
2022-09-20T22:34:21.805Z,63.43
2022-09-20T22:36:49.888Z,62.83
2022-09-20T22:39:17.466Z,62.54
2022-09-20T22:41:47.828Z,62.14
2022-09-20T22:44:15.514Z,61.96
2022-09-20T22:46:42.893Z,61.45
2022-09-20T22:49:10.270Z,61.06
2022-09-20T22:51:43.069Z,61.09
2022-09-20T22:54:24.697Z,62.07
2022-09-20T22:56:52.867Z,62.03
2022-09-20T22:59:22.376Z,61.72
2022-09-20T23:01:54.939Z,60.92
2022-09-20T23:04:23.420Z,61.80
2022-09-20T23:06:55.089Z,62.17
2022-09-20T23:09:24.716Z,63.64
2022-09-20T23:11:52.262Z,62.84
2022-09-20T23:14:21.245Z,62.25
2022-09-20T23:16:49.305Z,62.06
2022-09-20T23:19:17.249Z,61.70
2022-09-20T23:21:44.769Z,62.01
2022-09-20T23:24:13.752Z,62.75
2022-09-20T23:27:00.377Z,62.78
2022-09-20T23:29:41.766Z,62.79
2022-09-20T23:32:17.269Z,62.62
2022-09-20T23:34:45.060Z,62.55
2022-09-20T23:37:12.717Z,62.45
2022-09-20T23:39:41.580Z,62.52
2022-09-20T23:42:11.851Z,62.88
2022-09-20T23:44:39.653Z,63.06
2022-09-20T23:47:07.067Z,63.12
2022-09-20T23:49:35.048Z,63.03
2022-09-20T23:52:02.837Z,62.77
2022-09-20T23:54:31.007Z,63.54
2022-09-20T23:56:58.204Z,63.02
2022-09-20T23:59:25.695Z,62.91
